createdAt,value
2019-02-05T00:00:39.433Z,36.30
2019-02-05T00:03:14.540Z,36.20
2019-02-05T00:05:48.071Z,36.10
2019-02-05T00:08:21.574Z,36.10
2019-02-05T00:10:55.051Z,36.00
2019-02-05T00:13:27.655Z,35.90
2019-02-05T00:16:00.131Z,35.70
2019-02-05T00:18:33.235Z,35.10
2019-02-05T00:21:05.599Z,35.00
2019-02-05T00:23:38.166Z,35.00
2019-02-05T00:26:10.695Z,35.00
2019-02-05T00:28:43.170Z,34.90
2019-02-05T00:31:15.683Z,34.90
2019-02-05T00:33:48.619Z,35.00
2019-02-05T00:36:21.086Z,34.90
2019-02-05T00:38:53.590Z,34.80
2019-02-05T00:41:26.395Z,34.70
2019-02-05T00:43:58.791Z,34.70
2019-02-05T00:46:31.273Z,34.80
2019-02-05T00:49:03.776Z,34.80
2019-02-05T00:51:36.958Z,34.90
2019-02-05T00:54:10.411Z,34.80
2019-02-05T00:56:42.795Z,34.90
2019-02-05T00:59:16.443Z,35.00
2019-02-05T01:01:49.396Z,35.10
2019-02-05T01:04:22.064Z,35.30
2019-02-05T01:06:55.184Z,35.50
2019-02-05T01:09:28.436Z,35.60
2019-02-05T01:12:01.428Z,35.70
2019-02-05T01:14:34.756Z,35.70
2019-02-05T01:17:07.802Z,35.70
2019-02-05T01:19:41.140Z,35.90
2019-02-05T01:22:14.689Z,36.00
2019-02-05T01:24:48.280Z,36.00
2019-02-05T01:27:21.305Z,36.20
2019-02-05T01:29:54.025Z,36.50
2019-02-05T01:32:26.758Z,36.70
2019-02-05T01:34:59.458Z,36.80
2019-02-05T01:37:32.181Z,36.90
2019-02-05T01:40:04.839Z,37.30
2019-02-05T01:42:37.662Z,37.10
2019-02-05T01:45:12.597Z,37.40
2019-02-05T01:47:45.092Z,37.70
2019-02-05T01:50:20.160Z,37.90
2019-02-05T01:52:52.835Z,38.30
2019-02-05T01:55:25.460Z,38.70
2019-02-05T01:57:59.070Z,38.90
2019-02-05T02:00:33.621Z,39.10
2019-02-05T02:03:07.083Z,39.60
2019-02-05T02:05:41.561Z,39.70
2019-02-05T02:08:14.366Z,39.80
2019-02-05T02:10:47.754Z,39.80
2019-02-05T02:13:20.723Z,39.80
2019-02-05T02:15:54.043Z,40.10
2019-02-05T02:18:27.085Z,40.40
2019-02-05T02:20:59.835Z,40.70
2019-02-05T02:23:33.284Z,40.40
2019-02-05T02:26:06.273Z,39.50
2019-02-05T02:28:38.770Z,38.30
2019-02-05T02:31:11.447Z,37.10
2019-02-05T02:33:43.902Z,36.10
2019-02-05T02:36:16.962Z,35.10
2019-02-05T02:38:50.336Z,34.40
2019-02-05T02:41:23.723Z,33.80
2019-02-05T02:43:58.114Z,33.40
2019-02-05T02:46:30.870Z,33.10
2019-02-05T02:49:03.386Z,32.60
2019-02-05T02:51:36.994Z,32.50
2019-02-05T02:54:09.672Z,32.40
2019-02-05T02:56:42.464Z,32.10
2019-02-05T02:59:16.147Z,32.00
2019-02-05T03:01:48.787Z,31.80
2019-02-05T03:04:21.655Z,31.70
2019-02-05T03:06:54.248Z,31.60
2019-02-05T03:09:27.433Z,31.50
2019-02-05T03:11:59.916Z,31.20
2019-02-05T03:14:34.051Z,30.90
2019-02-05T03:17:06.740Z,30.70
2019-02-05T03:19:39.769Z,30.60
2019-02-05T03:22:12.172Z,30.60
2019-02-05T03:24:44.827Z,30.50
2019-02-05T03:27:18.476Z,30.50
2019-02-05T03:29:50.872Z,30.50
2019-02-05T03:32:23.875Z,30.50
2019-02-05T03:34:56.336Z,30.30
2019-02-05T03:37:28.810Z,30.20
2019-02-05T03:40:01.552Z,30.10
2019-02-05T03:42:34.064Z,30.10
2019-02-05T03:45:08.981Z,30.00
2019-02-05T03:47:41.392Z,30.00
2019-02-05T03:50:13.960Z,29.90
2019-02-05T03:52:48.503Z,29.80
2019-02-05T03:55:35.124Z,29.80
2019-02-05T03:58:21.451Z,29.60
2019-02-05T04:01:10.842Z,29.50
2019-02-05T04:03:57.395Z,29.50
2019-02-05T04:06:52.854Z,29.60
2019-02-05T04:09:36.475Z,29.60
2019-02-05T04:12:10.911Z,29.60
2019-02-05T04:14:57.095Z,29.50
2019-02-05T04:17:58.531Z,29.50
2019-02-05T04:20:34.144Z,29.50
2019-02-05T04:23:29.391Z,29.50
2019-02-05T04:26:21.726Z,29.50
2019-02-05T04:29:02.083Z,29.50
2019-02-05T04:31:36.861Z,29.50
2019-02-05T04:34:14.110Z,29.40
2019-02-05T04:36:58.917Z,29.30
2019-02-05T04:39:57.101Z,29.30
2019-02-05T04:42:52.820Z,29.30
2019-02-05T04:45:42.249Z,29.30
2019-02-05T04:48:37.900Z,29.30
2019-02-05T04:51:34.014Z,29.20
2019-02-05T04:54:11.708Z,29.10
2019-02-05T04:57:08.244Z,29.10
2019-02-05T04:59:43.099Z,29.00
2019-02-05T05:02:18.933Z,29.00
2019-02-05T05:04:56.369Z,29.00
2019-02-05T05:07:49.281Z,29.00
2019-02-05T05:10:21.849Z,28.90
2019-02-05T05:12:55.113Z,28.90
2019-02-05T05:15:27.834Z,28.80
2019-02-05T05:18:01.732Z,28.80
2019-02-05T05:20:34.999Z,28.70
2019-02-05T05:23:07.775Z,28.70
2019-02-05T05:25:40.248Z,28.60
2019-02-05T05:28:13.052Z,28.50
2019-02-05T05:30:45.789Z,28.40
2019-02-05T05:33:18.549Z,28.30
2019-02-05T05:35:50.949Z,28.20
2019-02-05T05:38:23.417Z,28.20
2019-02-05T05:40:56.217Z,28.10
2019-02-05T05:43:28.946Z,28.00
2019-02-05T05:46:02.485Z,27.90
2019-02-05T05:48:34.945Z,27.80
2019-02-05T05:51:07.685Z,27.70
2019-02-05T05:53:40.191Z,27.60
2019-02-05T05:56:14.331Z,27.60
2019-02-05T05:58:46.957Z,27.50
2019-02-05T06:01:19.741Z,27.40
2019-02-05T06:03:52.463Z,27.30
2019-02-05T06:06:25.144Z,27.20
2019-02-05T06:08:57.667Z,27.20
2019-02-05T06:11:30.276Z,27.10
2019-02-05T06:14:04.117Z,27.00
2019-02-05T06:16:36.806Z,26.90
2019-02-05T06:19:09.385Z,26.90
2019-02-05T06:21:41.883Z,26.80
2019-02-05T06:24:14.875Z,26.70
2019-02-05T06:26:47.479Z,26.70
2019-02-05T06:29:20.588Z,26.60
2019-02-05T06:31:53.272Z,26.50
2019-02-05T06:34:26.033Z,26.50
2019-02-05T06:36:58.534Z,26.40
2019-02-05T06:39:31.004Z,26.40
2019-02-05T06:42:04.241Z,26.40
2019-02-05T06:44:36.592Z,26.30
2019-02-05T06:47:11.447Z,26.20
2019-02-05T06:49:44.052Z,26.20
2019-02-05T06:52:16.673Z,26.10
2019-02-05T06:54:50.952Z,26.10
2019-02-05T06:57:23.793Z,26.00
2019-02-05T06:59:56.329Z,25.90
2019-02-05T07:02:29.142Z,25.80
2019-02-05T07:05:01.515Z,25.80
2019-02-05T07:07:34.306Z,25.80
2019-02-05T07:10:07.710Z,25.70
2019-02-05T07:12:41.289Z,25.60
2019-02-05T07:15:14.391Z,25.60
2019-02-05T07:17:49.676Z,25.60
2019-02-05T07:20:21.955Z,25.50
2019-02-05T07:22:55.791Z,25.40
2019-02-05T07:25:28.495Z,25.30
2019-02-05T07:28:01.183Z,25.30
2019-02-05T07:30:33.643Z,25.20
2019-02-05T07:33:06.014Z,25.20
2019-02-05T07:35:41.039Z,25.10
2019-02-05T07:38:13.530Z,25.10
2019-02-05T07:40:46.469Z,25.00
2019-02-05T07:43:18.844Z,25.00
2019-02-05T07:45:52.628Z,24.90
2019-02-05T07:48:25.235Z,24.90
2019-02-05T07:50:57.735Z,24.90
2019-02-05T07:53:33.087Z,24.80
2019-02-05T07:56:03.931Z,24.70
2019-02-05T07:58:36.901Z,24.70
2019-02-05T08:01:09.439Z,24.60
2019-02-05T08:03:42.585Z,24.60
2019-02-05T08:06:15.123Z,24.50
2019-02-05T08:08:47.908Z,24.50
2019-02-05T08:11:20.532Z,24.50
2019-02-05T08:13:53.507Z,24.40
2019-02-05T08:16:26.165Z,24.40
2019-02-05T08:18:58.853Z,24.30
2019-02-05T08:21:31.420Z,24.30
2019-02-05T08:24:04.082Z,24.20
2019-02-05T08:26:36.449Z,24.20
2019-02-05T08:29:09.210Z,24.20
2019-02-05T08:31:42.467Z,24.10
2019-02-05T08:34:15.041Z,24.00
2019-02-05T08:36:49.486Z,24.00
2019-02-05T08:39:22.309Z,24.00
2019-02-05T08:41:55.299Z,24.00
2019-02-05T08:44:27.785Z,23.90
2019-02-05T08:47:00.593Z,23.90
2019-02-05T08:49:33.525Z,23.90
2019-02-05T08:52:05.980Z,23.80
2019-02-05T08:54:38.757Z,23.80
2019-02-05T08:57:11.240Z,23.70
2019-02-05T08:59:43.737Z,23.70
2019-02-05T09:02:16.483Z,23.70
2019-02-05T09:04:49.245Z,23.70
2019-02-05T09:07:24.690Z,23.60
2019-02-05T09:09:58.130Z,23.60
2019-02-05T09:12:31.052Z,23.50
2019-02-05T09:15:03.705Z,23.50
2019-02-05T09:17:36.567Z,23.40
2019-02-05T09:20:14.352Z,23.40
2019-02-05T09:22:47.273Z,23.40
2019-02-05T09:25:20.328Z,23.30
2019-02-05T09:27:53.124Z,23.30
2019-02-05T09:30:27.634Z,23.20
2019-02-05T09:33:02.446Z,23.20
2019-02-05T09:35:34.953Z,23.20
2019-02-05T09:38:07.706Z,23.10
2019-02-05T09:40:41.222Z,23.10
2019-02-05T09:43:13.685Z,23.00
2019-02-05T09:45:46.472Z,23.00
2019-02-05T09:48:19.468Z,22.90
2019-02-05T09:50:52.115Z,22.90
2019-02-05T09:53:24.775Z,22.80
2019-02-05T09:55:57.485Z,22.80
2019-02-05T09:58:30.032Z,22.80
2019-02-05T10:01:02.748Z,22.70
2019-02-05T10:03:37.279Z,22.70
2019-02-05T10:06:09.450Z,22.60
2019-02-05T10:08:42.109Z,22.60
2019-02-05T10:11:14.634Z,22.60
2019-02-05T10:13:47.498Z,22.50
2019-02-05T10:16:20.418Z,22.40
2019-02-05T10:18:52.843Z,22.40
2019-02-05T10:21:25.500Z,22.40
2019-02-05T10:23:57.981Z,22.30
2019-02-05T10:26:30.652Z,22.30
2019-02-05T10:29:03.031Z,22.20
2019-02-05T10:31:35.570Z,22.20
2019-02-05T10:34:08.423Z,22.10
2019-02-05T10:36:41.068Z,22.10
2019-02-05T10:39:14.432Z,22.00
2019-02-05T10:41:47.056Z,22.00
2019-02-05T10:44:19.661Z,22.00
2019-02-05T10:46:55.241Z,22.00
2019-02-05T10:49:28.027Z,21.90
2019-02-05T10:52:00.945Z,21.90
2019-02-05T10:54:35.295Z,21.80
2019-02-05T10:57:08.443Z,21.80
2019-02-05T10:59:41.006Z,21.80
2019-02-05T11:02:13.542Z,21.70
2019-02-05T11:04:46.950Z,21.70
2019-02-05T11:07:19.538Z,21.70
2019-02-05T11:09:52.027Z,21.60
2019-02-05T11:12:26.258Z,21.60
2019-02-05T11:14:58.952Z,21.60
2019-02-05T11:17:31.335Z,21.60
2019-02-05T11:20:04.065Z,21.60
2019-02-05T11:22:36.630Z,21.50
2019-02-05T11:25:10.682Z,21.50
2019-02-05T11:27:45.676Z,21.50
2019-02-05T11:30:27.790Z,21.40
2019-02-05T11:33:00.266Z,21.40
2019-02-05T11:35:33.037Z,21.40
2019-02-05T11:38:06.986Z,21.40
2019-02-05T11:40:41.001Z,21.40
2019-02-05T11:43:13.630Z,21.30
2019-02-05T11:45:46.405Z,21.30
2019-02-05T11:48:19.794Z,21.30
2019-02-05T11:50:52.945Z,21.30
2019-02-05T11:53:25.719Z,21.30
2019-02-05T11:55:58.308Z,21.20
2019-02-05T11:58:30.718Z,21.20
2019-02-05T12:01:04.786Z,21.20
2019-02-05T12:03:37.258Z,21.20
2019-02-05T12:06:09.767Z,21.20
2019-02-05T12:08:42.343Z,21.10
2019-02-05T12:11:14.991Z,21.10
2019-02-05T12:13:48.055Z,21.00
2019-02-05T12:16:21.772Z,21.00
2019-02-05T12:18:54.248Z,20.90
2019-02-05T12:21:26.972Z,20.90
2019-02-05T12:24:05.113Z,20.90
2019-02-05T12:26:41.113Z,20.80
2019-02-05T12:29:18.604Z,20.80
2019-02-05T12:31:50.442Z,20.80
2019-02-05T12:34:23.148Z,20.80
2019-02-05T12:36:55.889Z,20.80
2019-02-05T12:39:28.307Z,20.70
2019-02-05T12:42:01.974Z,20.80
2019-02-05T12:44:34.554Z,20.70
2019-02-05T12:47:07.011Z,20.70
2019-02-05T12:49:39.776Z,20.70
2019-02-05T12:52:13.183Z,20.70
2019-02-05T12:54:45.687Z,20.60
2019-02-05T12:57:18.375Z,20.60
2019-02-05T12:59:50.956Z,20.60
2019-02-05T13:02:23.731Z,20.60
2019-02-05T13:04:56.413Z,20.50
2019-02-05T13:07:29.345Z,20.50
2019-02-05T13:10:01.820Z,20.50
2019-02-05T13:12:34.486Z,20.40
2019-02-05T13:15:08.213Z,20.40
2019-02-05T13:17:40.757Z,20.40
2019-02-05T13:20:18.246Z,20.40
2019-02-05T13:22:50.873Z,20.40
2019-02-05T13:25:25.046Z,20.40
2019-02-05T13:27:57.525Z,20.30
2019-02-05T13:30:31.804Z,20.40
2019-02-05T13:33:04.611Z,20.30
2019-02-05T13:35:37.569Z,20.30
2019-02-05T13:38:10.223Z,20.30
2019-02-05T13:40:42.804Z,20.30
2019-02-05T13:43:15.176Z,20.30
2019-02-05T13:45:47.843Z,20.30
2019-02-05T13:48:20.620Z,20.40
2019-02-05T13:50:53.204Z,20.40
2019-02-05T13:53:26.261Z,20.40
2019-02-05T13:55:59.031Z,20.40
2019-02-05T13:58:31.494Z,20.30
2019-02-05T14:01:04.189Z,20.30
2019-02-05T14:03:36.570Z,20.20
2019-02-05T14:06:09.099Z,20.20
2019-02-05T14:08:41.687Z,20.20
2019-02-05T14:11:14.523Z,20.20
2019-02-05T14:13:46.955Z,20.10
2019-02-05T14:16:19.845Z,20.10
2019-02-05T14:18:55.231Z,20.00
2019-02-05T14:21:26.375Z,20.00
2019-02-05T14:23:59.562Z,20.00
2019-02-05T14:26:32.155Z,20.00
2019-02-05T14:29:04.671Z,20.00
2019-02-05T14:31:37.367Z,20.00
2019-02-05T14:34:10.071Z,19.90
2019-02-05T14:36:42.488Z,19.90
2019-02-05T14:39:15.100Z,19.90
2019-02-05T14:41:48.309Z,19.90
2019-02-05T14:44:20.944Z,19.90
2019-02-05T14:46:53.600Z,19.90
2019-02-05T14:49:26.386Z,19.90
2019-02-05T14:51:58.777Z,19.90
2019-02-05T14:54:31.604Z,19.80
2019-02-05T14:57:06.313Z,19.80
2019-02-05T14:59:38.409Z,19.80
2019-02-05T15:02:11.063Z,19.80
2019-02-05T15:04:43.662Z,19.80
2019-02-05T15:07:16.540Z,19.80
2019-02-05T15:09:49.254Z,19.80
2019-02-05T15:12:22.007Z,19.70
2019-02-05T15:14:54.503Z,19.70
2019-02-05T15:17:27.252Z,19.70
2019-02-05T15:19:59.790Z,19.70
2019-02-05T15:22:32.480Z,19.70
2019-02-05T15:25:05.374Z,19.70
2019-02-05T15:27:38.721Z,19.80
2019-02-05T15:30:19.145Z,19.80
2019-02-05T15:33:08.129Z,19.80
2019-02-05T15:35:43.001Z,19.80
2019-02-05T15:38:15.369Z,19.70
2019-02-05T15:40:48.277Z,19.70
2019-02-05T15:43:20.825Z,19.60
2019-02-05T15:45:53.296Z,19.60
2019-02-05T15:48:26.706Z,19.50
2019-02-05T15:50:59.070Z,19.50
2019-02-05T15:53:31.675Z,19.40
2019-02-05T15:56:05.045Z,19.40
2019-02-05T15:58:37.847Z,19.40
2019-02-05T16:01:10.675Z,19.30
2019-02-05T16:03:43.159Z,19.30
2019-02-05T16:06:15.907Z,19.30
2019-02-05T16:08:48.487Z,19.30
2019-02-05T16:11:21.187Z,19.20
2019-02-05T16:13:53.872Z,19.20
2019-02-05T16:16:26.657Z,19.20
2019-02-05T16:19:00.362Z,19.20
2019-02-05T16:21:33.124Z,19.20
2019-02-05T16:24:05.584Z,19.20
2019-02-05T16:26:38.437Z,19.20
2019-02-05T16:29:11.069Z,19.20
2019-02-05T16:31:44.705Z,19.20
2019-02-05T16:34:17.109Z,19.20
2019-02-05T16:36:50.818Z,19.20
2019-02-05T16:39:23.394Z,19.20
2019-02-05T16:41:55.770Z,19.10
2019-02-05T16:44:28.422Z,19.10
2019-02-05T16:47:01.918Z,19.10
2019-02-05T16:49:34.514Z,19.10
2019-02-05T16:52:07.314Z,19.10
2019-02-05T16:54:40.242Z,19.10
2019-02-05T16:57:12.779Z,19.00
2019-02-05T16:59:45.788Z,19.00
2019-02-05T17:02:28.420Z,18.90
2019-02-05T17:04:51.908Z,18.90
2019-02-05T17:07:24.535Z,18.90
2019-02-05T17:09:57.076Z,18.90
2019-02-05T17:12:29.755Z,18.90
2019-02-05T17:15:02.290Z,18.90
2019-02-05T17:17:35.280Z,18.90
2019-02-05T17:20:09.411Z,18.90
2019-02-05T17:22:42.145Z,18.90
2019-02-05T17:25:16.694Z,18.90
2019-02-05T17:27:49.615Z,18.80
2019-02-05T17:30:26.655Z,18.80
2019-02-05T17:32:59.384Z,18.90
2019-02-05T17:35:31.896Z,18.90
2019-02-05T17:38:05.536Z,18.90
2019-02-05T17:40:38.222Z,18.90
2019-02-05T17:43:10.692Z,18.90
2019-02-05T17:45:46.255Z,18.90
2019-02-05T17:48:20.020Z,18.90
2019-02-05T17:50:52.600Z,18.90
2019-02-05T17:53:25.639Z,18.80
2019-02-05T17:55:58.470Z,18.80
2019-02-05T17:58:31.142Z,18.80
2019-02-05T18:01:04.883Z,18.80
2019-02-05T18:03:37.299Z,18.80
2019-02-05T18:06:09.888Z,18.80
2019-02-05T18:08:43.770Z,18.80
2019-02-05T18:11:16.267Z,18.90
2019-02-05T18:13:48.728Z,18.90
2019-02-05T18:16:21.374Z,18.90
2019-02-05T18:18:53.976Z,18.90
2019-02-05T18:21:27.348Z,19.00
2019-02-05T18:24:00.169Z,19.00
2019-02-05T18:26:32.763Z,19.00
2019-02-05T18:29:05.416Z,19.10
2019-02-05T18:31:37.947Z,19.10
2019-02-05T18:34:10.677Z,19.20
2019-02-05T18:36:43.295Z,19.30
2019-02-05T18:39:15.878Z,19.40
2019-02-05T18:41:48.553Z,19.40
2019-02-05T18:44:21.344Z,19.50
2019-02-05T18:46:53.734Z,19.60
2019-02-05T18:49:26.324Z,19.70
2019-02-05T18:51:59.795Z,19.80
2019-02-05T18:54:32.359Z,19.90
2019-02-05T18:57:04.839Z,20.10
2019-02-05T18:59:37.691Z,20.20
2019-02-05T19:02:10.116Z,20.30
2019-02-05T19:04:42.772Z,20.40
2019-02-05T19:07:15.360Z,20.50
2019-02-05T19:09:48.341Z,20.60
2019-02-05T19:12:21.050Z,20.70
2019-02-05T19:14:53.577Z,20.80
2019-02-05T19:17:26.290Z,20.90
2019-02-05T19:19:58.957Z,21.00
2019-02-05T19:22:31.515Z,21.20
2019-02-05T19:25:04.779Z,21.40
2019-02-05T19:27:37.411Z,21.60
2019-02-05T19:30:12.090Z,21.80
2019-02-05T19:32:44.499Z,22.00
2019-02-05T19:35:17.123Z,22.10
2019-02-05T19:37:53.551Z,22.20
2019-02-05T19:40:26.091Z,22.30
2019-02-05T19:42:58.603Z,22.30
2019-02-05T19:45:48.648Z,22.30
2019-02-05T19:48:25.154Z,22.30
2019-02-05T19:50:57.953Z,22.20
2019-02-05T19:53:31.519Z,22.30
2019-02-05T19:56:04.286Z,22.30
2019-02-05T19:58:37.184Z,22.50
2019-02-05T20:01:10.117Z,22.60
2019-02-05T20:03:42.858Z,22.90
2019-02-05T20:06:15.834Z,23.10
2019-02-05T20:08:49.001Z,23.40
2019-02-05T20:11:22.846Z,23.40
2019-02-05T20:13:58.542Z,23.50
2019-02-05T20:16:31.201Z,23.70
2019-02-05T20:19:04.241Z,23.90
2019-02-05T20:21:36.777Z,24.10
2019-02-05T20:24:09.585Z,24.30
2019-02-05T20:26:42.362Z,24.50
2019-02-05T20:29:14.897Z,24.70
2019-02-05T20:31:48.581Z,24.90
2019-02-05T20:34:21.437Z,25.10
2019-02-05T20:36:53.830Z,25.30
2019-02-05T20:39:27.580Z,25.40
2019-02-05T20:42:00.148Z,25.50
2019-02-05T20:44:32.642Z,25.60
2019-02-05T20:47:05.278Z,25.60
2019-02-05T20:49:37.690Z,25.80
2019-02-05T20:52:10.358Z,26.10
2019-02-05T20:54:42.757Z,26.30
2019-02-05T20:57:15.264Z,26.40
2019-02-05T20:59:47.974Z,26.60
2019-02-05T21:02:20.929Z,26.70
2019-02-05T21:04:53.842Z,26.70
2019-02-05T21:07:26.674Z,26.80
2019-02-05T21:09:59.195Z,27.00
2019-02-05T21:12:32.236Z,27.20
2019-02-05T21:15:05.458Z,27.40
2019-02-05T21:17:38.519Z,27.50
2019-02-05T21:20:16.021Z,27.70
2019-02-05T21:22:48.880Z,27.80
2019-02-05T21:25:22.872Z,28.00
2019-02-05T21:27:58.080Z,28.20
2019-02-05T21:30:29.830Z,28.40
2019-02-05T21:33:02.691Z,28.60
2019-02-05T21:35:39.185Z,28.80
2019-02-05T21:38:12.176Z,29.00
2019-02-05T21:40:44.716Z,29.20
2019-02-05T21:43:17.564Z,29.50
2019-02-05T21:45:50.472Z,29.70
2019-02-05T21:48:23.102Z,30.00
2019-02-05T21:50:55.685Z,30.00
2019-02-05T21:53:28.695Z,30.20
2019-02-05T21:56:01.177Z,30.30
2019-02-05T21:58:33.832Z,30.50
2019-02-05T22:01:09.846Z,30.70
2019-02-05T22:03:42.590Z,30.90
2019-02-05T22:06:15.408Z,31.10
2019-02-05T22:08:48.068Z,31.30
2019-02-05T22:11:26.263Z,31.40
2019-02-05T22:13:57.563Z,31.50
2019-02-05T22:16:30.242Z,31.50
2019-02-05T22:19:02.814Z,31.60
2019-02-05T22:21:35.568Z,31.70
2019-02-05T22:24:09.485Z,31.70
2019-02-05T22:26:45.069Z,31.90
2019-02-05T22:29:17.845Z,32.10
2019-02-05T22:31:50.601Z,32.40
2019-02-05T22:34:24.202Z,32.60
2019-02-05T22:36:59.684Z,32.80
2019-02-05T22:39:33.591Z,33.00
2019-02-05T22:42:06.344Z,33.20
2019-02-05T22:44:40.223Z,33.40
2019-02-05T22:47:12.796Z,33.60
2019-02-05T22:49:45.484Z,33.80
2019-02-05T22:52:18.986Z,34.10
2019-02-05T22:54:52.568Z,34.40
2019-02-05T22:57:26.647Z,34.70
2019-02-05T23:00:04.534Z,34.30
2019-02-05T23:02:39.074Z,34.70
2019-02-05T23:05:23.464Z,35.00
2019-02-05T23:07:57.704Z,35.20
2019-02-05T23:10:32.743Z,35.40
2019-02-05T23:13:06.444Z,35.40
2019-02-05T23:15:39.355Z,35.60
2019-02-05T23:18:12.836Z,35.90
2019-02-05T23:20:47.177Z,36.10
2019-02-05T23:23:20.432Z,36.30
2019-02-05T23:25:56.101Z,36.40
2019-02-05T23:28:27.967Z,36.60
2019-02-05T23:31:01.331Z,36.80
2019-02-05T23:33:34.767Z,36.90
2019-02-05T23:36:09.251Z,35.80
2019-02-05T23:38:42.712Z,36.20
2019-02-05T23:41:15.875Z,36.30
2019-02-05T23:43:48.911Z,36.20
2019-02-05T23:46:21.528Z,36.50
2019-02-05T23:48:57.896Z,36.70
2019-02-05T23:51:31.393Z,36.50
2019-02-05T23:54:04.760Z,35.90
2019-02-05T23:56:38.309Z,36.20
2019-02-05T23:59:11.531Z,36.20
